sensor_id;sensor_type;location;lat;lon;timestamp;temperature;humidity
20398;DHT22;10358;49.590;11.030;2023-05-10T00:00:11;16.20;73.40
20398;DHT22;10358;49.590;11.030;2023-05-10T00:02:37;16.20;74.00
20398;DHT22;10358;49.590;11.030;2023-05-10T00:05:04;16.20;74.80
20398;DHT22;10358;49.590;11.030;2023-05-10T00:07:30;16.10;75.60
20398;DHT22;10358;49.590;11.030;2023-05-10T00:09:58;16.00;77.20
20398;DHT22;10358;49.590;11.030;2023-05-10T00:12:26;16.00;78.40
20398;DHT22;10358;49.590;11.030;2023-05-10T00:14:52;15.90;79.80
20398;DHT22;10358;49.590;11.030;2023-05-10T00:17:17;15.90;80.80
20398;DHT22;10358;49.590;11.030;2023-05-10T00:19:43;15.90;81.60
20398;DHT22;10358;49.590;11.030;2023-05-10T00:22:09;15.80;83.70
20398;DHT22;10358;49.590;11.030;2023-05-10T00:24:35;15.80;84.60
20398;DHT22;10358;49.590;11.030;2023-05-10T00:27:01;15.80;85.80
20398;DHT22;10358;49.590;11.030;2023-05-10T00:29:29;15.80;85.90
20398;DHT22;10358;49.590;11.030;2023-05-10T00:31:55;15.70;87.20
20398;DHT22;10358;49.590;11.030;2023-05-10T00:34:21;15.70;88.50
20398;DHT22;10358;49.590;11.030;2023-05-10T00:36:47;15.60;90.40
20398;DHT22;10358;49.590;11.030;2023-05-10T00:39:15;15.40;90.70
20398;DHT22;10358;49.590;11.030;2023-05-10T00:41:43;15.30;91.10
20398;DHT22;10358;49.590;11.030;2023-05-10T00:44:09;15.30;91.90
20398;DHT22;10358;49.590;11.030;2023-05-10T00:46:34;15.20;92.70
20398;DHT22;10358;49.590;11.030;2023-05-10T00:49:01;15.00;93.70
20398;DHT22;10358;49.590;11.030;2023-05-10T00:51:27;15.00;94.70
20398;DHT22;10358;49.590;11.030;2023-05-10T00:53:53;15.00;95.70
20398;DHT22;10358;49.590;11.030;2023-05-10T00:56:19;15.00;96.70
20398;DHT22;10358;49.590;11.030;2023-05-10T00:58:48;15.00;97.50
20398;DHT22;10358;49.590;11.030;2023-05-10T01:01:14;14.80;98.50
20398;DHT22;10358;49.590;11.030;2023-05-10T01:03:40;14.80;99.90
20398;DHT22;10358;49.590;11.030;2023-05-10T01:06:08;14.80;99.90
20398;DHT22;10358;49.590;11.030;2023-05-10T01:08:36;14.70;99.90
20398;DHT22;10358;49.590;11.030;2023-05-10T01:11:02;14.60;99.90
20398;DHT22;10358;49.590;11.030;2023-05-10T01:13:38;14.60;99.90
20398;DHT22;10358;49.590;11.030;2023-05-10T01:16:05;14.50;99.90
20398;DHT22;10358;49.590;11.030;2023-05-10T01:18:40;14.50;99.90
20398;DHT22;10358;49.590;11.030;2023-05-10T01:21:31;14.50;99.90
20398;DHT22;10358;49.590;11.030;2023-05-10T01:30:12;14.60;99.90
20398;DHT22;10358;49.590;11.030;2023-05-10T01:32:55;14.60;99.90
20398;DHT22;10358;49.590;11.030;2023-05-10T01:35:51;14.60;99.90
20398;DHT22;10358;49.590;11.030;2023-05-10T01:38:47;14.60;99.90
20398;DHT22;10358;49.590;11.030;2023-05-10T01:44:29;14.50;99.90
20398;DHT22;10358;49.590;11.030;2023-05-10T01:47:17;14.40;99.90
20398;DHT22;10358;49.590;11.030;2023-05-10T01:49:50;14.40;99.90
20398;DHT22;10358;49.590;11.030;2023-05-10T01:52:19;14.30;99.90
20398;DHT22;10358;49.590;11.030;2023-05-10T01:54:53;14.30;99.90
20398;DHT22;10358;49.590;11.030;2023-05-10T01:57:22;14.30;99.90
20398;DHT22;10358;49.590;11.030;2023-05-10T01:59:51;14.20;99.90
20398;DHT22;10358;49.590;11.030;2023-05-10T02:02:20;14.20;99.90
20398;DHT22;10358;49.590;11.030;2023-05-10T02:04:49;14.20;99.90
20398;DHT22;10358;49.590;11.030;2023-05-10T02:07:16;14.30;99.90
20398;DHT22;10358;49.590;11.030;2023-05-10T02:09:44;14.30;99.90
20398;DHT22;10358;49.590;11.030;2023-05-10T02:12:13;14.30;99.90
20398;DHT22;10358;49.590;11.030;2023-05-10T02:14:40;14.20;99.90
20398;DHT22;10358;49.590;11.030;2023-05-10T02:17:07;14.20;99.90
20398;DHT22;10358;49.590;11.030;2023-05-10T02:19:36;14.20;99.90
20398;DHT22;10358;49.590;11.030;2023-05-10T02:22:03;14.20;99.90
20398;DHT22;10358;49.590;11.030;2023-05-10T02:24:29;14.20;99.90
20398;DHT22;10358;49.590;11.030;2023-05-10T02:26:56;14.30;99.90
20398;DHT22;10358;49.590;11.030;2023-05-10T02:29:23;14.30;99.90
20398;DHT22;10358;49.590;11.030;2023-05-10T02:31:52;14.30;99.90
20398;DHT22;10358;49.590;11.030;2023-05-10T02:34:20;14.30;99.90
20398;DHT22;10358;49.590;11.030;2023-05-10T02:36:47;14.30;99.90
20398;DHT22;10358;49.590;11.030;2023-05-10T02:39:14;14.30;99.90
20398;DHT22;10358;49.590;11.030;2023-05-10T02:41:41;14.40;99.90
20398;DHT22;10358;49.590;11.030;2023-05-10T02:44:09;14.40;99.90
20398;DHT22;10358;49.590;11.030;2023-05-10T02:46:35;14.40;99.90
20398;DHT22;10358;49.590;11.030;2023-05-10T02:49:02;14.40;99.90
20398;DHT22;10358;49.590;11.030;2023-05-10T02:51:31;14.40;99.90
20398;DHT22;10358;49.590;11.030;2023-05-10T02:53:57;14.40;99.90
20398;DHT22;10358;49.590;11.030;2023-05-10T02:56:33;14.50;99.90
20398;DHT22;10358;49.590;11.030;2023-05-10T02:58:59;14.50;99.90
20398;DHT22;10358;49.590;11.030;2023-05-10T03:01:25;14.50;99.90
20398;DHT22;10358;49.590;11.030;2023-05-10T03:03:50;14.40;99.90
20398;DHT22;10358;49.590;11.030;2023-05-10T03:06:16;14.30;99.90
20398;DHT22;10358;49.590;11.030;2023-05-10T03:08:42;14.20;99.90
20398;DHT22;10358;49.590;11.030;2023-05-10T03:16:22;14.20;99.90
20398;DHT22;10358;49.590;11.030;2023-05-10T03:19:20;14.30;99.90
20398;DHT22;10358;49.590;11.030;2023-05-10T03:21:50;14.30;99.90
20398;DHT22;10358;49.590;11.030;2023-05-10T03:24:20;14.30;99.90
20398;DHT22;10358;49.590;11.030;2023-05-10T03:26:47;14.30;99.90
20398;DHT22;10358;49.590;11.030;2023-05-10T03:29:14;14.30;99.90
20398;DHT22;10358;49.590;11.030;2023-05-10T03:31:41;14.30;99.90
20398;DHT22;10358;49.590;11.030;2023-05-10T03:34:07;14.30;99.90
20398;DHT22;10358;49.590;11.030;2023-05-10T03:36:33;14.40;99.90
20398;DHT22;10358;49.590;11.030;2023-05-10T03:38:58;14.40;99.90
20398;DHT22;10358;49.590;11.030;2023-05-10T03:41:24;14.40;99.90
20398;DHT22;10358;49.590;11.030;2023-05-10T03:43:51;14.40;99.90
20398;DHT22;10358;49.590;11.030;2023-05-10T03:46:16;14.30;99.90
20398;DHT22;10358;49.590;11.030;2023-05-10T03:48:42;14.30;99.90
20398;DHT22;10358;49.590;11.030;2023-05-10T03:51:08;14.40;99.90
20398;DHT22;10358;49.590;11.030;2023-05-10T03:53:33;14.30;99.90
20398;DHT22;10358;49.590;11.030;2023-05-10T03:55:59;14.40;99.90
20398;DHT22;10358;49.590;11.030;2023-05-10T03:58:25;14.40;99.90
20398;DHT22;10358;49.590;11.030;2023-05-10T04:00:51;14.40;99.90
20398;DHT22;10358;49.590;11.030;2023-05-10T04:03:17;14.40;99.90
20398;DHT22;10358;49.590;11.030;2023-05-10T04:05:43;14.40;99.90
20398;DHT22;10358;49.590;11.030;2023-05-10T04:08:11;14.40;99.90
20398;DHT22;10358;49.590;11.030;2023-05-10T04:10:37;14.40;99.90
20398;DHT22;10358;49.590;11.030;2023-05-10T04:13:06;14.40;99.90
20398;DHT22;10358;49.590;11.030;2023-05-10T04:15:35;14.40;99.90
20398;DHT22;10358;49.590;11.030;2023-05-10T04:18:01;14.40;99.90
20398;DHT22;10358;49.590;11.030;2023-05-10T04:20:26;14.40;99.90
20398;DHT22;10358;49.590;11.030;2023-05-10T04:22:52;14.40;99.90
20398;DHT22;10358;49.590;11.030;2023-05-10T04:25:18;14.40;99.90
20398;DHT22;10358;49.590;11.030;2023-05-10T04:27:43;14.40;99.90
20398;DHT22;10358;49.590;11.030;2023-05-10T04:30:12;14.30;99.90
20398;DHT22;10358;49.590;11.030;2023-05-10T04:32:43;14.30;99.90
20398;DHT22;10358;49.590;11.030;2023-05-10T04:35:09;14.30;99.90
20398;DHT22;10358;49.590;11.030;2023-05-10T04:37:35;14.30;99.90
20398;DHT22;10358;49.590;11.030;2023-05-10T04:40:02;14.30;99.90
20398;DHT22;10358;49.590;11.030;2023-05-10T04:42:28;14.30;99.90
20398;DHT22;10358;49.590;11.030;2023-05-10T04:44:54;14.20;99.90
20398;DHT22;10358;49.590;11.030;2023-05-10T04:47:20;14.20;99.90
20398;DHT22;10358;49.590;11.030;2023-05-10T04:49:45;14.10;99.90
20398;DHT22;10358;49.590;11.030;2023-05-10T04:52:32;14.10;99.90
20398;DHT22;10358;49.590;11.030;2023-05-10T04:55:30;14.00;99.90
20398;DHT22;10358;49.590;11.030;2023-05-10T04:57:56;14.00;99.90
20398;DHT22;10358;49.590;11.030;2023-05-10T05:00:23;14.10;99.90
20398;DHT22;10358;49.590;11.030;2023-05-10T05:02:48;14.10;99.90
20398;DHT22;10358;49.590;11.030;2023-05-10T05:05:14;14.10;99.90
20398;DHT22;10358;49.590;11.030;2023-05-10T05:07:40;14.10;99.90
20398;DHT22;10358;49.590;11.030;2023-05-10T05:10:06;14.00;99.90
20398;DHT22;10358;49.590;11.030;2023-05-10T05:12:32;14.00;99.90
20398;DHT22;10358;49.590;11.030;2023-05-10T05:14:58;14.00;99.90
20398;DHT22;10358;49.590;11.030;2023-05-10T05:17:23;14.00;99.90
20398;DHT22;10358;49.590;11.030;2023-05-10T05:19:49;14.00;99.90
20398;DHT22;10358;49.590;11.030;2023-05-10T05:22:14;14.00;99.90
20398;DHT22;10358;49.590;11.030;2023-05-10T05:24:40;14.00;99.90
20398;DHT22;10358;49.590;11.030;2023-05-10T05:27:06;14.00;99.90
20398;DHT22;10358;49.590;11.030;2023-05-10T05:29:31;14.00;99.90
20398;DHT22;10358;49.590;11.030;2023-05-10T05:31:57;14.00;99.90
20398;DHT22;10358;49.590;11.030;2023-05-10T05:34:23;14.00;99.90
20398;DHT22;10358;49.590;11.030;2023-05-10T05:36:50;14.00;99.90
20398;DHT22;10358;49.590;11.030;2023-05-10T05:39:15;14.00;99.90
20398;DHT22;10358;49.590;11.030;2023-05-10T05:41:41;14.00;99.90
20398;DHT22;10358;49.590;11.030;2023-05-10T05:44:07;14.10;99.90
20398;DHT22;10358;49.590;11.030;2023-05-10T05:46:32;14.00;99.90
20398;DHT22;10358;49.590;11.030;2023-05-10T05:48:58;14.10;99.90
20398;DHT22;10358;49.590;11.030;2023-05-10T05:51:23;14.20;99.90
20398;DHT22;10358;49.590;11.030;2023-05-10T05:53:49;14.20;99.90
20398;DHT22;10358;49.590;11.030;2023-05-10T05:56:14;14.20;99.90
20398;DHT22;10358;49.590;11.030;2023-05-10T05:58:40;14.20;99.90
20398;DHT22;10358;49.590;11.030;2023-05-10T06:01:05;14.20;99.90
20398;DHT22;10358;49.590;11.030;2023-05-10T06:03:31;14.20;99.90
20398;DHT22;10358;49.590;11.030;2023-05-10T06:05:57;14.10;99.90
20398;DHT22;10358;49.590;11.030;2023-05-10T06:08:23;14.10;99.90
20398;DHT22;10358;49.590;11.030;2023-05-10T06:10:48;14.10;99.90
20398;DHT22;10358;49.590;11.030;2023-05-10T06:13:14;14.20;99.90
20398;DHT22;10358;49.590;11.030;2023-05-10T06:15:39;14.20;99.90
20398;DHT22;10358;49.590;11.030;2023-05-10T06:18:05;14.20;99.90
20398;DHT22;10358;49.590;11.030;2023-05-10T06:20:31;14.20;99.90
20398;DHT22;10358;49.590;11.030;2023-05-10T06:22:57;14.30;99.90
20398;DHT22;10358;49.590;11.030;2023-05-10T06:25:23;14.20;99.90
20398;DHT22;10358;49.590;11.030;2023-05-10T06:27:49;14.30;99.90
20398;DHT22;10358;49.590;11.030;2023-05-10T06:30:14;14.30;99.90
20398;DHT22;10358;49.590;11.030;2023-05-10T06:32:40;14.30;99.90
20398;DHT22;10358;49.590;11.030;2023-05-10T06:35:07;14.40;99.90
20398;DHT22;10358;49.590;11.030;2023-05-10T06:37:33;14.40;99.90
20398;DHT22;10358;49.590;11.030;2023-05-10T06:39:59;14.50;99.90
20398;DHT22;10358;49.590;11.030;2023-05-10T06:42:25;14.60;99.90
20398;DHT22;10358;49.590;11.030;2023-05-10T06:44:51;14.70;99.90
20398;DHT22;10358;49.590;11.030;2023-05-10T06:47:16;14.80;99.90
20398;DHT22;10358;49.590;11.030;2023-05-10T06:49:42;14.80;99.90
20398;DHT22;10358;49.590;11.030;2023-05-10T06:52:08;14.90;99.90
20398;DHT22;10358;49.590;11.030;2023-05-10T06:54:33;15.00;99.90
20398;DHT22;10358;49.590;11.030;2023-05-10T06:56:59;15.10;99.90
20398;DHT22;10358;49.590;11.030;2023-05-10T06:59:24;15.10;99.90
20398;DHT22;10358;49.590;11.030;2023-05-10T07:01:50;15.10;99.90
20398;DHT22;10358;49.590;11.030;2023-05-10T07:04:16;15.00;99.90
20398;DHT22;10358;49.590;11.030;2023-05-10T07:06:42;15.20;99.90
20398;DHT22;10358;49.590;11.030;2023-05-10T07:09:08;15.10;99.90
20398;DHT22;10358;49.590;11.030;2023-05-10T07:11:34;15.10;99.90
20398;DHT22;10358;49.590;11.030;2023-05-10T07:14:00;15.20;99.90
20398;DHT22;10358;49.590;11.030;2023-05-10T07:16:25;15.20;99.90
20398;DHT22;10358;49.590;11.030;2023-05-10T07:18:51;15.20;99.90
20398;DHT22;10358;49.590;11.030;2023-05-10T07:21:18;15.20;99.90
20398;DHT22;10358;49.590;11.030;2023-05-10T07:23:44;15.30;99.90
20398;DHT22;10358;49.590;11.030;2023-05-10T07:26:09;15.40;99.90
20398;DHT22;10358;49.590;11.030;2023-05-10T07:28:35;15.40;99.90
20398;DHT22;10358;49.590;11.030;2023-05-10T07:31:02;15.40;99.90
20398;DHT22;10358;49.590;11.030;2023-05-10T07:33:28;15.60;99.90
20398;DHT22;10358;49.590;11.030;2023-05-10T07:35:54;15.70;99.90
20398;DHT22;10358;49.590;11.030;2023-05-10T07:38:19;15.80;99.90
20398;DHT22;10358;49.590;11.030;2023-05-10T07:40:45;15.90;99.90
20398;DHT22;10358;49.590;11.030;2023-05-10T07:43:10;16.00;99.90
20398;DHT22;10358;49.590;11.030;2023-05-10T07:45:36;16.00;99.90
20398;DHT22;10358;49.590;11.030;2023-05-10T07:48:01;15.90;99.90
20398;DHT22;10358;49.590;11.030;2023-05-10T07:50:27;15.90;99.90
20398;DHT22;10358;49.590;11.030;2023-05-10T07:52:53;16.20;99.90
20398;DHT22;10358;49.590;11.030;2023-05-10T07:55:19;15.80;99.90
20398;DHT22;10358;49.590;11.030;2023-05-10T07:57:46;15.70;99.90
20398;DHT22;10358;49.590;11.030;2023-05-10T08:00:18;15.70;99.90
20398;DHT22;10358;49.590;11.030;2023-05-10T08:02:44;15.60;99.90
20398;DHT22;10358;49.590;11.030;2023-05-10T08:05:10;15.50;99.90
20398;DHT22;10358;49.590;11.030;2023-05-10T08:07:35;15.40;99.90
20398;DHT22;10358;49.590;11.030;2023-05-10T08:10:02;15.30;99.90
20398;DHT22;10358;49.590;11.030;2023-05-10T08:12:27;15.30;99.90
20398;DHT22;10358;49.590;11.030;2023-05-10T08:14:53;15.30;99.90
20398;DHT22;10358;49.590;11.030;2023-05-10T08:17:18;15.30;99.90
20398;DHT22;10358;49.590;11.030;2023-05-10T08:19:44;15.30;99.90
20398;DHT22;10358;49.590;11.030;2023-05-10T08:22:09;15.30;99.90
20398;DHT22;10358;49.590;11.030;2023-05-10T08:24:35;15.40;99.90
20398;DHT22;10358;49.590;11.030;2023-05-10T08:27:07;15.50;99.90
20398;DHT22;10358;49.590;11.030;2023-05-10T08:29:32;15.60;99.90
20398;DHT22;10358;49.590;11.030;2023-05-10T08:31:58;15.70;99.90
20398;DHT22;10358;49.590;11.030;2023-05-10T08:34:23;15.80;99.90
20398;DHT22;10358;49.590;11.030;2023-05-10T08:36:49;16.00;99.90
20398;DHT22;10358;49.590;11.030;2023-05-10T08:39:14;16.20;99.90
20398;DHT22;10358;49.590;11.030;2023-05-10T08:41:44;16.20;99.90
20398;DHT22;10358;49.590;11.030;2023-05-10T08:44:10;16.20;99.90
20398;DHT22;10358;49.590;11.030;2023-05-10T08:46:37;16.20;99.90
20398;DHT22;10358;49.590;11.030;2023-05-10T08:49:06;16.20;99.90
20398;DHT22;10358;49.590;11.030;2023-05-10T08:51:37;16.00;99.90
20398;DHT22;10358;49.590;11.030;2023-05-10T08:54:05;15.80;99.90
20398;DHT22;10358;49.590;11.030;2023-05-10T08:56:31;15.70;99.90
20398;DHT22;10358;49.590;11.030;2023-05-10T08:58:57;15.70;99.90
20398;DHT22;10358;49.590;11.030;2023-05-10T09:01:23;15.70;99.90
20398;DHT22;10358;49.590;11.030;2023-05-10T09:03:50;15.60;99.90
20398;DHT22;10358;49.590;11.030;2023-05-10T09:06:16;15.70;99.90
20398;DHT22;10358;49.590;11.030;2023-05-10T09:08:42;15.70;99.90
20398;DHT22;10358;49.590;11.030;2023-05-10T09:11:09;15.60;99.90
20398;DHT22;10358;49.590;11.030;2023-05-10T09:13:35;15.60;99.90
20398;DHT22;10358;49.590;11.030;2023-05-10T09:16:02;15.60;99.90
20398;DHT22;10358;49.590;11.030;2023-05-10T09:18:28;15.70;99.90
20398;DHT22;10358;49.590;11.030;2023-05-10T09:20:54;15.70;99.90
20398;DHT22;10358;49.590;11.030;2023-05-10T09:23:20;15.90;99.90
20398;DHT22;10358;49.590;11.030;2023-05-10T09:25:45;16.10;99.90
20398;DHT22;10358;49.590;11.030;2023-05-10T09:28:11;16.20;99.90
20398;DHT22;10358;49.590;11.030;2023-05-10T09:30:37;16.40;99.90
20398;DHT22;10358;49.590;11.030;2023-05-10T09:33:03;16.50;99.90
20398;DHT22;10358;49.590;11.030;2023-05-10T09:35:31;16.40;99.90
20398;DHT22;10358;49.590;11.030;2023-05-10T09:38:04;16.50;99.90
20398;DHT22;10358;49.590;11.030;2023-05-10T09:40:30;16.30;99.90
20398;DHT22;10358;49.590;11.030;2023-05-10T09:43:08;16.40;99.90
20398;DHT22;10358;49.590;11.030;2023-05-10T09:45:36;16.60;99.90
20398;DHT22;10358;49.590;11.030;2023-05-10T09:48:02;16.50;99.90
20398;DHT22;10358;49.590;11.030;2023-05-10T09:50:29;16.60;99.90
20398;DHT22;10358;49.590;11.030;2023-05-10T09:53:00;16.80;99.90
20398;DHT22;10358;49.590;11.030;2023-05-10T09:55:46;16.70;99.90
20398;DHT22;10358;49.590;11.030;2023-05-10T09:58:13;16.60;99.90
20398;DHT22;10358;49.590;11.030;2023-05-10T10:00:41;16.40;99.90
20398;DHT22;10358;49.590;11.030;2023-05-10T10:03:15;16.50;99.90
20398;DHT22;10358;49.590;11.030;2023-05-10T10:05:42;16.50;99.90
20398;DHT22;10358;49.590;11.030;2023-05-10T10:08:11;16.60;99.90
20398;DHT22;10358;49.590;11.030;2023-05-10T10:10:37;16.70;99.90
20398;DHT22;10358;49.590;11.030;2023-05-10T10:13:05;16.80;99.90
20398;DHT22;10358;49.590;11.030;2023-05-10T10:15:33;16.80;99.90
20398;DHT22;10358;49.590;11.030;2023-05-10T10:17:58;16.90;99.90
20398;DHT22;10358;49.590;11.030;2023-05-10T10:20:25;17.10;99.90
20398;DHT22;10358;49.590;11.030;2023-05-10T10:22:53;17.30;99.90
20398;DHT22;10358;49.590;11.030;2023-05-10T10:25:20;17.50;99.90
20398;DHT22;10358;49.590;11.030;2023-05-10T10:30:39;17.70;99.90
20398;DHT22;10358;49.590;11.030;2023-05-10T10:36:09;17.80;99.90
20398;DHT22;10358;49.590;11.030;2023-05-10T10:49:26;17.40;99.90
20398;DHT22;10358;49.590;11.030;2023-05-10T10:52:24;17.30;99.90
20398;DHT22;10358;49.590;11.030;2023-05-10T11:00:30;17.40;99.90
20398;DHT22;10358;49.590;11.030;2023-05-10T11:03:11;17.30;99.90
20398;DHT22;10358;49.590;11.030;2023-05-10T11:05:47;17.30;99.90
20398;DHT22;10358;49.590;11.030;2023-05-10T11:08:27;17.30;99.90
20398;DHT22;10358;49.590;11.030;2023-05-10T11:16:22;17.20;99.90
20398;DHT22;10358;49.590;11.030;2023-05-10T11:18:53;17.30;99.90
20398;DHT22;10358;49.590;11.030;2023-05-10T11:21:19;17.50;99.90
20398;DHT22;10358;49.590;11.030;2023-05-10T11:26:11;17.70;99.90
20398;DHT22;10358;49.590;11.030;2023-05-10T11:28:46;17.80;99.90
20398;DHT22;10358;49.590;11.030;2023-05-10T11:31:19;17.80;99.90
20398;DHT22;10358;49.590;11.030;2023-05-10T11:33:50;17.60;99.90
20398;DHT22;10358;49.590;11.030;2023-05-10T11:36:21;17.60;99.90
20398;DHT22;10358;49.590;11.030;2023-05-10T11:38:47;17.60;99.90
20398;DHT22;10358;49.590;11.030;2023-05-10T11:41:16;17.70;99.90
20398;DHT22;10358;49.590;11.030;2023-05-10T11:43:42;17.80;99.90
20398;DHT22;10358;49.590;11.030;2023-05-10T11:46:11;17.80;99.90
20398;DHT22;10358;49.590;11.030;2023-05-10T11:48:41;17.90;99.90
20398;DHT22;10358;49.590;11.030;2023-05-10T11:51:07;18.00;99.90
20398;DHT22;10358;49.590;11.030;2023-05-10T11:53:34;18.20;99.90
20398;DHT22;10358;49.590;11.030;2023-05-10T11:56:06;18.20;99.90
20398;DHT22;10358;49.590;11.030;2023-05-10T11:58:33;18.20;99.90
20398;DHT22;10358;49.590;11.030;2023-05-10T12:01:02;18.30;99.90
20398;DHT22;10358;49.590;11.030;2023-05-10T12:03:29;18.40;99.90
20398;DHT22;10358;49.590;11.030;2023-05-10T12:05:55;18.40;99.90
20398;DHT22;10358;49.590;11.030;2023-05-10T12:08:26;18.40;99.90
20398;DHT22;10358;49.590;11.030;2023-05-10T12:10:53;18.30;99.90
20398;DHT22;10358;49.590;11.030;2023-05-10T12:13:20;18.30;99.90
20398;DHT22;10358;49.590;11.030;2023-05-10T12:15:46;18.40;99.90
20398;DHT22;10358;49.590;11.030;2023-05-10T12:18:13;18.60;99.90
20398;DHT22;10358;49.590;11.030;2023-05-10T12:20:40;18.80;99.90
20398;DHT22;10358;49.590;11.030;2023-05-10T12:23:07;18.90;99.90
20398;DHT22;10358;49.590;11.030;2023-05-10T12:25:34;18.70;99.90
20398;DHT22;10358;49.590;11.030;2023-05-10T12:28:03;18.40;99.90
20398;DHT22;10358;49.590;11.030;2023-05-10T12:30:32;18.20;99.90
20398;DHT22;10358;49.590;11.030;2023-05-10T12:35:43;18.30;99.90
20398;DHT22;10358;49.590;11.030;2023-05-10T12:38:42;18.50;99.90
20398;DHT22;10358;49.590;11.030;2023-05-10T12:41:10;18.60;99.90
20398;DHT22;10358;49.590;11.030;2023-05-10T12:43:37;18.50;99.90
20398;DHT22;10358;49.590;11.030;2023-05-10T12:46:11;18.60;99.90
20398;DHT22;10358;49.590;11.030;2023-05-10T12:48:37;18.70;99.90
20398;DHT22;10358;49.590;11.030;2023-05-10T12:51:04;18.80;99.90
20398;DHT22;10358;49.590;11.030;2023-05-10T12:53:30;18.70;99.90
20398;DHT22;10358;49.590;11.030;2023-05-10T12:55:56;18.50;99.90
20398;DHT22;10358;49.590;11.030;2023-05-10T12:58:22;18.40;99.90
20398;DHT22;10358;49.590;11.030;2023-05-10T13:00:47;18.40;99.90
20398;DHT22;10358;49.590;11.030;2023-05-10T13:03:13;18.30;99.90
20398;DHT22;10358;49.590;11.030;2023-05-10T13:05:38;18.30;99.90
20398;DHT22;10358;49.590;11.030;2023-05-10T13:08:04;18.20;99.90
20398;DHT22;10358;49.590;11.030;2023-05-10T13:10:30;18.10;99.90
20398;DHT22;10358;49.590;11.030;2023-05-10T13:12:57;18.10;99.90
20398;DHT22;10358;49.590;11.030;2023-05-10T13:15:23;18.00;99.90
20398;DHT22;10358;49.590;11.030;2023-05-10T13:17:48;17.90;99.90
20398;DHT22;10358;49.590;11.030;2023-05-10T13:20:14;17.90;99.90
20398;DHT22;10358;49.590;11.030;2023-05-10T13:22:41;17.90;99.90
20398;DHT22;10358;49.590;11.030;2023-05-10T13:25:07;17.80;99.90
20398;DHT22;10358;49.590;11.030;2023-05-10T13:27:33;17.60;99.90
20398;DHT22;10358;49.590;11.030;2023-05-10T13:29:59;17.30;99.90
20398;DHT22;10358;49.590;11.030;2023-05-10T13:32:25;17.20;99.90
20398;DHT22;10358;49.590;11.030;2023-05-10T13:34:51;17.00;99.90
20398;DHT22;10358;49.590;11.030;2023-05-10T13:37:17;17.00;99.90
20398;DHT22;10358;49.590;11.030;2023-05-10T13:39:42;17.00;99.90
20398;DHT22;10358;49.590;11.030;2023-05-10T13:42:08;17.00;99.90
20398;DHT22;10358;49.590;11.030;2023-05-10T13:44:33;17.10;99.90
20398;DHT22;10358;49.590;11.030;2023-05-10T13:46:59;17.20;99.90
20398;DHT22;10358;49.590;11.030;2023-05-10T13:49:25;17.30;99.90
20398;DHT22;10358;49.590;11.030;2023-05-10T13:51:50;17.40;99.90
20398;DHT22;10358;49.590;11.030;2023-05-10T13:54:16;17.60;99.90
20398;DHT22;10358;49.590;11.030;2023-05-10T13:56:44;17.60;99.90
20398;DHT22;10358;49.590;11.030;2023-05-10T13:59:13;17.70;99.90
20398;DHT22;10358;49.590;11.030;2023-05-10T14:01:40;17.80;99.90
20398;DHT22;10358;49.590;11.030;2023-05-10T14:04:05;17.80;99.90
20398;DHT22;10358;49.590;11.030;2023-05-10T14:06:32;17.90;99.90
20398;DHT22;10358;49.590;11.030;2023-05-10T14:08:57;17.80;99.90
20398;DHT22;10358;49.590;11.030;2023-05-10T14:11:23;17.70;99.90
20398;DHT22;10358;49.590;11.030;2023-05-10T14:13:49;17.70;99.90
20398;DHT22;10358;49.590;11.030;2023-05-10T14:16:14;17.50;99.90
20398;DHT22;10358;49.590;11.030;2023-05-10T14:18:40;17.30;99.90
20398;DHT22;10358;49.590;11.030;2023-05-10T14:21:05;16.60;99.90
20398;DHT22;10358;49.590;11.030;2023-05-10T14:23:31;15.80;99.90
20398;DHT22;10358;49.590;11.030;2023-05-10T14:25:57;15.30;99.90
20398;DHT22;10358;49.590;11.030;2023-05-10T14:28:22;15.10;99.90
20398;DHT22;10358;49.590;11.030;2023-05-10T14:30:49;15.10;99.90
20398;DHT22;10358;49.590;11.030;2023-05-10T14:33:16;15.10;99.90
20398;DHT22;10358;49.590;11.030;2023-05-10T14:35:42;15.30;99.90
20398;DHT22;10358;49.590;11.030;2023-05-10T14:38:07;15.30;99.90
20398;DHT22;10358;49.590;11.030;2023-05-10T14:40:33;15.30;99.90
20398;DHT22;10358;49.590;11.030;2023-05-10T14:42:59;15.20;99.90
20398;DHT22;10358;49.590;11.030;2023-05-10T14:45:25;15.10;99.90
20398;DHT22;10358;49.590;11.030;2023-05-10T14:47:51;15.00;99.90
20398;DHT22;10358;49.590;11.030;2023-05-10T14:50:18;15.00;99.90
20398;DHT22;10358;49.590;11.030;2023-05-10T14:52:44;15.10;99.90
20398;DHT22;10358;49.590;11.030;2023-05-10T14:55:10;15.10;99.90
20398;DHT22;10358;49.590;11.030;2023-05-10T14:57:36;15.20;99.90
20398;DHT22;10358;49.590;11.030;2023-05-10T15:00:02;15.30;99.90
20398;DHT22;10358;49.590;11.030;2023-05-10T15:02:30;15.30;99.90
20398;DHT22;10358;49.590;11.030;2023-05-10T15:04:55;15.40;99.90
20398;DHT22;10358;49.590;11.030;2023-05-10T15:07:21;15.30;99.90
20398;DHT22;10358;49.590;11.030;2023-05-10T15:09:46;15.10;99.90
20398;DHT22;10358;49.590;11.030;2023-05-10T15:12:12;14.90;99.90
20398;DHT22;10358;49.590;11.030;2023-05-10T15:14:37;14.50;99.90
20398;DHT22;10358;49.590;11.030;2023-05-10T15:17:05;14.20;99.90
20398;DHT22;10358;49.590;11.030;2023-05-10T15:19:31;13.90;99.90
20398;DHT22;10358;49.590;11.030;2023-05-10T15:21:58;13.60;99.90
20398;DHT22;10358;49.590;11.030;2023-05-10T15:24:24;13.50;99.90
20398;DHT22;10358;49.590;11.030;2023-05-10T15:26:49;13.20;99.90
20398;DHT22;10358;49.590;11.030;2023-05-10T15:29:15;13.10;99.90
20398;DHT22;10358;49.590;11.030;2023-05-10T15:31:46;13.00;99.90
20398;DHT22;10358;49.590;11.030;2023-05-10T15:34:12;12.90;99.90
20398;DHT22;10358;49.590;11.030;2023-05-10T15:36:38;12.90;99.90
20398;DHT22;10358;49.590;11.030;2023-05-10T15:39:03;12.90;99.90
20398;DHT22;10358;49.590;11.030;2023-05-10T15:41:29;12.80;99.90
20398;DHT22;10358;49.590;11.030;2023-05-10T15:43:55;12.70;99.90
20398;DHT22;10358;49.590;11.030;2023-05-10T15:46:21;12.80;99.90
20398;DHT22;10358;49.590;11.030;2023-05-10T15:48:46;12.80;99.90
20398;DHT22;10358;49.590;11.030;2023-05-10T15:51:12;12.80;99.90
20398;DHT22;10358;49.590;11.030;2023-05-10T15:53:38;12.90;99.90
20398;DHT22;10358;49.590;11.030;2023-05-10T15:56:04;12.90;99.90
20398;DHT22;10358;49.590;11.030;2023-05-10T15:58:30;12.90;99.90
20398;DHT22;10358;49.590;11.030;2023-05-10T16:00:55;12.90;99.90
20398;DHT22;10358;49.590;11.030;2023-05-10T16:03:22;12.90;99.90